createdAt,value
2023-02-04T00:00:53.132Z,17.20
2023-02-04T00:03:20.026Z,17.17
2023-02-04T00:05:48.347Z,19.25
2023-02-04T00:08:15.273Z,21.60
2023-02-04T00:10:42.004Z,19.63
2023-02-04T00:13:08.785Z,18.13
2023-02-04T00:15:35.551Z,19.60
2023-02-04T00:18:02.265Z,18.23
2023-02-04T00:20:29.407Z,13.10
2023-02-04T00:22:57.533Z,17.77
2023-02-04T00:25:24.571Z,18.35
2023-02-04T00:27:51.274Z,13.57
2023-02-04T00:30:18.104Z,19.27
2023-02-04T00:32:44.807Z,17.42
2023-02-04T00:35:11.525Z,12.50
2023-02-04T00:37:38.443Z,17.80
2023-02-04T00:40:05.479Z,16.67
2023-02-04T00:42:32.248Z,13.25
2023-02-04T00:44:59.146Z,16.13
2023-02-04T00:47:25.829Z,14.20
2023-02-04T00:49:53.718Z,16.05
2023-02-04T00:52:20.509Z,15.40
2023-02-04T00:54:47.532Z,11.27
2023-02-04T00:57:14.240Z,14.82
2023-02-04T00:59:42.386Z,11.88
2023-02-04T01:02:14.003Z,18.33
2023-02-04T01:04:40.764Z,13.20
2023-02-04T01:07:07.551Z,19.15
2023-02-04T01:09:34.345Z,14.90
2023-02-04T01:12:02.623Z,14.27
2023-02-04T01:14:30.380Z,15.55
2023-02-04T01:16:57.283Z,13.88
2023-02-04T01:19:23.985Z,11.85
2023-02-04T01:21:50.723Z,16.05
2023-02-04T01:24:17.550Z,11.20
2023-02-04T01:26:45.911Z,18.55
2023-02-04T01:29:12.650Z,12.80
2023-02-04T01:31:40.686Z,16.42
2023-02-04T01:34:07.505Z,9.68
2023-02-04T01:36:35.366Z,14.32
2023-02-04T01:39:03.418Z,19.00
2023-02-04T01:41:33.231Z,12.95
2023-02-04T01:44:00.036Z,10.88
2023-02-04T01:46:27.171Z,13.77
2023-02-04T01:48:54.266Z,15.05
2023-02-04T01:51:30.433Z,13.02
2023-02-04T01:53:57.327Z,17.35
2023-02-04T01:56:28.726Z,18.95
2023-02-04T01:58:58.250Z,17.45
2023-02-04T02:01:34.464Z,11.70
2023-02-04T02:04:02.044Z,14.57
2023-02-04T02:06:29.573Z,11.30
2023-02-04T02:08:58.322Z,14.93
2023-02-04T02:11:27.669Z,16.85
2023-02-04T02:13:54.539Z,14.23
2023-02-04T02:16:21.617Z,12.80
2023-02-04T02:18:49.294Z,17.95
2023-02-04T02:21:21.762Z,10.65
2023-02-04T02:24:01.134Z,15.55
2023-02-04T02:26:28.375Z,12.50
2023-02-04T02:28:56.671Z,11.32
2023-02-04T02:31:24.021Z,19.52
2023-02-04T02:33:53.843Z,19.15
2023-02-04T02:36:22.876Z,16.77
2023-02-04T02:38:52.950Z,11.15
2023-02-04T02:41:19.762Z,14.45
2023-02-04T02:43:46.788Z,16.73
2023-02-04T02:46:13.764Z,14.32
2023-02-04T02:48:41.561Z,11.93
2023-02-04T02:51:08.475Z,16.15
2023-02-04T02:53:36.430Z,12.27
2023-02-04T02:56:04.770Z,16.30
2023-02-04T02:58:34.538Z,15.90
2023-02-04T03:01:05.687Z,25.27
2023-02-04T03:03:52.242Z,14.63
2023-02-04T03:06:26.241Z,17.08
2023-02-04T03:08:56.024Z,16.55
2023-02-04T03:11:24.054Z,17.10
2023-02-04T03:13:52.943Z,20.17
2023-02-04T03:16:21.506Z,17.60
2023-02-04T03:18:50.883Z,18.65
2023-02-04T03:21:17.814Z,21.10
2023-02-04T03:23:44.673Z,16.33
2023-02-04T03:26:11.449Z,16.65
2023-02-04T03:28:42.696Z,13.90
2023-02-04T03:31:09.661Z,11.40
2023-02-04T03:33:36.464Z,17.67
2023-02-04T03:36:03.448Z,13.30
2023-02-04T03:38:31.317Z,17.30
2023-02-04T03:40:58.260Z,12.32
2023-02-04T03:43:25.084Z,16.75
2023-02-04T03:45:52.898Z,12.73
2023-02-04T03:48:19.725Z,20.10
2023-02-04T03:50:46.809Z,16.58
2023-02-04T03:53:13.725Z,16.23
2023-02-04T03:55:40.587Z,12.52
2023-02-04T03:58:07.238Z,15.50
2023-02-04T04:00:35.700Z,14.77
2023-02-04T04:03:02.447Z,17.55
2023-02-04T04:05:29.296Z,13.85
2023-02-04T04:07:56.250Z,12.40
2023-02-04T04:10:23.144Z,17.13
2023-02-04T04:12:50.031Z,15.43
2023-02-04T04:15:17.900Z,13.98
2023-02-04T04:17:46.063Z,14.27
2023-02-04T04:20:13.468Z,10.73
2023-02-04T04:22:40.243Z,16.48
2023-02-04T04:25:07.946Z,13.23
2023-02-04T04:27:34.755Z,18.52
2023-02-04T04:30:01.595Z,17.60
2023-02-04T04:32:30.930Z,15.40
2023-02-04T04:34:57.642Z,16.70
2023-02-04T04:37:24.359Z,15.48
2023-02-04T04:39:52.102Z,14.30
2023-02-04T04:42:20.492Z,19.08
2023-02-04T04:44:49.178Z,13.85
2023-02-04T04:47:16.221Z,18.92
2023-02-04T04:49:42.961Z,12.27
2023-02-04T04:52:11.004Z,13.68
2023-02-04T04:54:37.867Z,17.20
2023-02-04T04:57:07.607Z,19.58
2023-02-04T04:59:34.349Z,16.25
2023-02-04T05:02:01.045Z,13.80
2023-02-04T05:04:27.991Z,19.15
2023-02-04T05:06:55.936Z,18.55
2023-02-04T05:09:23.195Z,13.93
2023-02-04T05:11:49.907Z,15.07
2023-02-04T05:14:16.619Z,13.98
2023-02-04T05:16:44.301Z,13.25
2023-02-04T05:19:10.982Z,19.55
2023-02-04T05:21:38.116Z,14.70
2023-02-04T05:24:06.589Z,17.25
2023-02-04T05:26:33.526Z,16.05
2023-02-04T05:29:03.653Z,15.43
2023-02-04T05:31:31.911Z,15.13
2023-02-04T05:33:58.726Z,14.95
2023-02-04T05:36:25.759Z,13.73
2023-02-04T05:38:52.537Z,19.05
2023-02-04T05:41:19.312Z,14.73
2023-02-04T05:43:46.073Z,18.92
2023-02-04T05:46:14.142Z,18.05
2023-02-04T05:48:43.498Z,21.45
2023-02-04T05:51:10.190Z,15.52
2023-02-04T05:53:36.906Z,18.45
2023-02-04T05:56:03.741Z,13.93
2023-02-04T05:58:33.620Z,15.02
2023-02-04T06:01:04.209Z,17.33
2023-02-04T06:03:31.769Z,18.00
2023-02-04T06:05:58.562Z,14.93
2023-02-04T06:08:26.838Z,18.70
2023-02-04T06:10:53.826Z,16.17
2023-02-04T06:13:20.759Z,22.10
2023-02-04T06:15:47.574Z,17.50
2023-02-04T06:18:14.298Z,18.60
2023-02-04T06:20:41.091Z,18.85
2023-02-04T06:23:07.867Z,19.10
2023-02-04T06:25:39.708Z,19.05
2023-02-04T06:28:07.986Z,18.77
2023-02-04T06:30:35.784Z,19.02
2023-02-04T06:33:04.217Z,17.50
2023-02-04T06:35:32.060Z,16.48
2023-02-04T06:37:58.969Z,19.05
2023-02-04T06:40:25.867Z,14.30
2023-02-04T06:42:54.308Z,21.63
2023-02-04T06:45:21.104Z,15.52
2023-02-04T06:47:48.098Z,17.52
2023-02-04T06:50:18.800Z,19.00
2023-02-04T06:52:49.520Z,13.52
2023-02-04T06:55:17.616Z,20.15
2023-02-04T06:57:45.425Z,17.83
2023-02-04T07:00:12.807Z,16.00
2023-02-04T07:02:42.636Z,20.33
2023-02-04T07:05:09.401Z,15.13
2023-02-04T07:07:36.334Z,17.20
2023-02-04T07:10:03.993Z,17.88
2023-02-04T07:12:30.902Z,16.27
2023-02-04T07:14:59.150Z,18.88
2023-02-04T07:17:28.170Z,11.13
2023-02-04T07:19:57.855Z,21.08
2023-02-04T07:22:24.579Z,17.05
2023-02-04T07:24:51.370Z,25.25
2023-02-04T07:27:18.264Z,15.57
2023-02-04T07:29:44.996Z,15.65
2023-02-04T07:32:12.709Z,19.40
2023-02-04T07:34:40.986Z,21.58
2023-02-04T07:37:07.760Z,19.95
2023-02-04T07:39:35.824Z,15.63
2023-02-04T07:42:04.452Z,17.70
2023-02-04T07:44:31.849Z,16.55
2023-02-04T07:47:00.837Z,24.63
2023-02-04T07:49:28.814Z,19.00
2023-02-04T07:51:55.619Z,18.98
2023-02-04T07:54:22.373Z,17.63
2023-02-04T07:56:49.097Z,23.60
2023-02-04T07:59:15.813Z,11.35
2023-02-04T08:01:42.560Z,17.10
2023-02-04T08:04:09.369Z,23.20
2023-02-04T08:06:36.307Z,20.60
2023-02-04T08:09:03.318Z,16.63
2023-02-04T08:11:31.020Z,20.35
2023-02-04T08:13:57.768Z,19.67
2023-02-04T08:16:25.837Z,18.60
2023-02-04T08:18:52.667Z,20.70
2023-02-04T08:21:21.833Z,23.83
2023-02-04T08:23:48.974Z,23.50
2023-02-04T08:26:15.689Z,19.98
2023-02-04T08:28:43.554Z,25.98
2023-02-04T08:31:13.448Z,23.25
2023-02-04T08:33:40.210Z,29.38
2023-02-04T08:36:07.692Z,26.05
2023-02-04T08:38:34.659Z,24.90
2023-02-04T08:41:01.973Z,19.98
2023-02-04T08:43:28.690Z,19.55
2023-02-04T08:45:55.410Z,24.92
2023-02-04T08:48:22.195Z,22.05
2023-02-04T08:50:48.919Z,24.20
2023-02-04T08:53:15.794Z,22.17
2023-02-04T08:55:44.068Z,24.00
2023-02-04T08:58:11.508Z,26.30
2023-02-04T09:00:41.634Z,28.23
2023-02-04T09:03:08.497Z,20.25
2023-02-04T09:05:35.259Z,28.63
2023-02-04T09:08:03.030Z,25.25
2023-02-04T09:10:30.006Z,31.75
2023-02-04T09:12:58.192Z,25.00
2023-02-04T09:15:25.206Z,26.23
2023-02-04T09:17:55.691Z,30.85
2023-02-04T09:20:22.402Z,25.17
2023-02-04T09:22:50.331Z,28.38
2023-02-04T09:25:17.506Z,23.00
2023-02-04T09:27:45.367Z,36.92
2023-02-04T09:30:14.969Z,27.27
2023-02-04T09:32:42.031Z,40.38
2023-02-04T09:35:11.205Z,27.15
2023-02-04T09:37:38.146Z,32.83
2023-02-04T09:40:05.212Z,28.33
2023-02-04T09:42:32.717Z,35.88
2023-02-04T09:45:03.492Z,28.52
2023-02-04T09:47:31.186Z,37.75
2023-02-04T09:49:58.553Z,22.52
2023-02-04T09:52:28.367Z,33.25
2023-02-04T09:54:55.400Z,34.55
2023-02-04T09:57:23.475Z,39.67
2023-02-04T09:59:51.913Z,20.73
2023-02-04T10:02:26.734Z,19.70
2023-02-04T10:04:57.847Z,30.00
2023-02-04T10:07:26.853Z,35.92
2023-02-04T10:09:54.441Z,37.10
2023-02-04T10:12:22.441Z,34.03
2023-02-04T10:14:52.617Z,32.45
2023-02-04T10:17:22.353Z,39.53
2023-02-04T10:19:49.790Z,31.23
2023-02-04T10:22:19.757Z,33.40
2023-02-04T10:24:47.135Z,44.25
2023-02-04T10:27:19.694Z,37.60
2023-02-04T10:29:57.612Z,29.73
2023-02-04T10:32:33.538Z,40.85
2023-02-04T10:35:02.345Z,38.95
2023-02-04T10:37:31.058Z,32.58
2023-02-04T10:39:57.954Z,34.53
2023-02-04T10:42:29.963Z,32.28
2023-02-04T10:44:57.628Z,32.78
2023-02-04T10:47:26.410Z,45.30
2023-02-04T10:50:23.211Z,35.95
2023-02-04T10:53:17.889Z,37.92
2023-02-04T10:55:47.687Z,40.40
2023-02-04T10:58:20.440Z,36.80
2023-02-04T11:00:48.415Z,44.78
2023-02-04T11:03:23.500Z,45.25
2023-02-04T11:05:51.520Z,43.17
2023-02-04T11:08:28.175Z,39.65
2023-02-04T11:10:58.744Z,33.92
2023-02-04T11:13:39.744Z,36.78
2023-02-04T11:16:19.060Z,33.53
2023-02-04T11:18:51.990Z,39.95
2023-02-04T11:21:32.994Z,35.13
2023-02-04T11:24:11.619Z,39.97
2023-02-04T11:26:43.860Z,45.58
2023-02-04T11:29:16.448Z,39.25
2023-02-04T11:31:48.965Z,27.80
2023-02-04T11:34:15.685Z,41.60
2023-02-04T11:37:04.866Z,40.85
2023-02-04T11:39:38.771Z,41.08
2023-02-04T11:42:14.465Z,32.15
2023-02-04T11:44:41.546Z,30.52
2023-02-04T11:47:09.561Z,32.38
2023-02-04T11:49:36.940Z,41.80
2023-02-04T11:52:13.265Z,38.65
2023-02-04T11:54:40.613Z,29.80
2023-02-04T11:57:11.018Z,34.83
2023-02-04T11:59:37.792Z,33.45
2023-02-04T12:02:19.179Z,41.05
2023-02-04T12:04:58.224Z,34.33
2023-02-04T12:07:30.314Z,32.90
2023-02-04T12:09:57.994Z,28.25
2023-02-04T12:12:30.979Z,25.88
2023-02-04T12:15:02.290Z,32.15
2023-02-04T12:17:30.379Z,36.90
2023-02-04T12:19:57.071Z,33.22
2023-02-04T12:22:23.978Z,34.78
2023-02-04T12:24:52.431Z,35.35
2023-02-04T12:27:21.343Z,28.35
2023-02-04T12:29:48.075Z,40.58
2023-02-04T12:32:17.459Z,35.95
2023-02-04T12:34:44.368Z,27.52
2023-02-04T12:37:11.264Z,29.55
2023-02-04T12:39:37.997Z,30.92
2023-02-04T12:42:06.376Z,27.95
2023-02-04T12:44:35.423Z,29.25
2023-02-04T12:47:02.217Z,24.20
2023-02-04T12:49:28.896Z,24.00
2023-02-04T12:51:59.281Z,25.98
2023-02-04T12:54:27.035Z,29.63
2023-02-04T12:56:58.065Z,29.50
2023-02-04T12:59:25.909Z,25.70
2023-02-04T13:01:54.084Z,29.67
2023-02-04T13:04:21.222Z,31.52
2023-02-04T13:06:47.988Z,30.10
2023-02-04T13:09:14.859Z,28.55
2023-02-04T13:11:45.833Z,31.90
2023-02-04T13:14:22.656Z,31.50
2023-02-04T13:16:52.180Z,25.73
2023-02-04T13:19:18.811Z,26.20
2023-02-04T13:21:45.477Z,30.27
2023-02-04T13:24:12.182Z,28.17
2023-02-04T13:26:39.421Z,23.98
2023-02-04T13:29:06.525Z,25.00
2023-02-04T13:31:34.440Z,35.70
2023-02-04T13:34:01.390Z,25.85
2023-02-04T13:36:30.367Z,24.90
2023-02-04T13:39:02.516Z,24.42
2023-02-04T13:41:29.475Z,28.60
2023-02-04T13:43:57.332Z,25.00
2023-02-04T13:46:25.261Z,29.80
2023-02-04T13:48:55.579Z,25.40
2023-02-04T13:51:22.343Z,23.65
2023-02-04T13:53:49.133Z,26.65
2023-02-04T13:56:19.367Z,26.35
2023-02-04T14:01:27.612Z,25.45
2023-02-04T14:03:54.611Z,20.52
2023-02-04T14:06:22.070Z,26.88
2023-02-04T14:08:48.958Z,24.88
2023-02-04T14:11:16.690Z,25.55
2023-02-04T14:13:49.546Z,22.73
2023-02-04T14:16:16.311Z,24.02
2023-02-04T14:18:43.051Z,23.13
2023-02-04T14:21:16.784Z,27.63
2023-02-04T14:23:43.548Z,23.02
2023-02-04T14:26:11.032Z,25.95
2023-02-04T14:28:44.034Z,27.65
2023-02-04T14:31:10.956Z,24.80
2023-02-04T14:33:40.351Z,26.65
2023-02-04T14:36:07.480Z,23.08
2023-02-04T14:38:34.335Z,21.88
2023-02-04T14:41:03.907Z,17.20
2023-02-04T14:43:37.114Z,24.20
2023-02-04T14:46:06.015Z,19.23
2023-02-04T14:48:33.299Z,24.52
2023-02-04T14:51:01.007Z,18.90
2023-02-04T14:53:29.429Z,19.77
2023-02-04T14:55:57.481Z,22.45
2023-02-04T14:58:27.972Z,23.33
2023-02-04T15:01:00.119Z,27.20
2023-02-04T15:03:26.891Z,21.88
2023-02-04T15:05:55.001Z,20.00
2023-02-04T15:08:21.924Z,19.25
2023-02-04T15:10:48.830Z,21.38
2023-02-04T15:13:26.790Z,24.25
2023-02-04T15:15:53.592Z,18.40
2023-02-04T15:18:20.574Z,17.42
2023-02-04T15:20:47.265Z,19.83
2023-02-04T15:23:16.604Z,22.73
2023-02-04T15:25:43.438Z,21.67
2023-02-04T15:28:12.183Z,24.17
2023-02-04T15:30:39.504Z,21.92
2023-02-04T15:33:06.322Z,23.95
2023-02-04T15:35:33.318Z,32.90
2023-02-04T15:38:05.622Z,18.98
2023-02-04T15:40:32.541Z,24.05
2023-02-04T15:43:06.396Z,18.15
2023-02-04T15:45:33.056Z,25.40
2023-02-04T15:48:00.991Z,17.08
2023-02-04T15:50:31.384Z,22.08
2023-02-04T15:52:58.793Z,22.60
2023-02-04T15:55:25.533Z,20.77
2023-02-04T15:57:52.313Z,30.67
2023-02-04T16:00:27.908Z,23.17
2023-02-04T16:02:59.443Z,22.08
2023-02-04T16:05:26.217Z,24.25
2023-02-04T16:08:02.984Z,25.40
2023-02-04T16:10:29.878Z,22.85
2023-02-04T16:12:59.938Z,24.25
2023-02-04T16:15:26.969Z,21.35
2023-02-04T16:17:58.016Z,25.25
2023-02-04T16:20:25.815Z,21.25
2023-02-04T16:22:53.382Z,26.15
2023-02-04T16:25:21.471Z,27.45
2023-02-04T16:27:48.216Z,23.55
2023-02-04T16:30:15.788Z,22.50
2023-02-04T16:32:44.599Z,31.73
2023-02-04T16:35:11.306Z,18.52
2023-02-04T16:37:38.128Z,32.97
2023-02-04T16:40:07.392Z,29.45
2023-02-04T16:42:36.130Z,29.20
2023-02-04T16:45:04.164Z,38.22
2023-02-04T16:47:33.713Z,28.40
2023-02-04T16:50:01.817Z,27.83
2023-02-04T16:52:36.302Z,31.50
2023-02-04T16:55:03.015Z,20.48
2023-02-04T16:57:29.676Z,27.15
2023-02-04T16:59:56.802Z,37.47
2023-02-04T17:02:24.862Z,28.25
2023-02-04T17:04:54.450Z,35.30
2023-02-04T17:07:28.580Z,29.05
2023-02-04T17:09:56.198Z,32.70
2023-02-04T17:12:25.322Z,31.42
2023-02-04T17:14:54.263Z,31.00
2023-02-04T17:17:22.090Z,25.05
2023-02-04T17:19:48.759Z,22.08
2023-02-04T17:22:19.454Z,27.20
2023-02-04T17:24:48.399Z,24.52
2023-02-04T17:27:15.893Z,21.42
2023-02-04T17:29:45.842Z,24.90
2023-02-04T17:32:12.679Z,25.73
2023-02-04T17:34:41.872Z,22.40
2023-02-04T17:37:08.569Z,22.27
2023-02-04T17:39:35.533Z,20.23
2023-02-04T17:42:02.306Z,21.58
2023-02-04T17:44:29.011Z,24.95
2023-02-04T17:46:56.062Z,20.20
2023-02-04T17:49:23.439Z,24.52
2023-02-04T17:51:53.323Z,25.67
2023-02-04T17:54:20.016Z,21.65
2023-02-04T17:56:49.589Z,18.30
2023-02-04T17:59:18.555Z,43.33
2023-02-04T18:01:45.867Z,25.95
2023-02-04T18:04:14.107Z,22.27
2023-02-04T18:06:41.615Z,23.60
2023-02-04T18:09:18.726Z,20.88
2023-02-04T18:11:45.568Z,31.20
2023-02-04T18:14:28.218Z,21.83
2023-02-04T18:17:00.462Z,20.63
2023-02-04T18:19:41.947Z,31.92
2023-02-04T18:22:19.492Z,26.52
2023-02-04T18:24:48.875Z,22.75
2023-02-04T18:27:19.780Z,25.52
2023-02-04T18:29:49.618Z,22.45
2023-02-04T18:32:26.216Z,22.50
2023-02-04T18:34:57.941Z,22.83
2023-02-04T18:37:33.251Z,22.73
2023-02-04T18:40:09.014Z,23.15
2023-02-04T18:42:43.911Z,22.27
2023-02-04T18:45:25.058Z,19.50
2023-02-04T18:47:58.641Z,21.08
2023-02-04T18:50:31.189Z,20.30
2023-02-04T18:53:15.145Z,19.17
2023-02-04T18:55:44.416Z,22.15
2023-02-04T18:58:18.623Z,22.50
2023-02-04T19:00:52.051Z,21.23
2023-02-04T19:03:30.171Z,23.30
2023-02-04T19:06:00.797Z,20.73
2023-02-04T19:08:31.830Z,38.45
2023-02-04T19:11:00.284Z,52.83
2023-02-04T19:13:40.672Z,35.60
2023-02-04T19:16:33.610Z,24.60
2023-02-04T19:19:00.498Z,22.80
2023-02-04T19:21:33.494Z,19.48
2023-02-04T19:24:19.621Z,23.08
2023-02-04T19:26:56.692Z,24.85
2023-02-04T19:29:25.426Z,24.02
2023-02-04T19:32:01.604Z,22.13
2023-02-04T19:34:33.968Z,22.70
2023-02-04T19:37:07.015Z,20.65
2023-02-04T19:39:40.360Z,24.80
2023-02-04T19:42:32.707Z,23.13
2023-02-04T19:45:22.456Z,20.48
2023-02-04T19:47:54.658Z,23.98
2023-02-04T19:50:34.717Z,22.05
2023-02-04T19:53:04.438Z,19.67
2023-02-04T19:55:36.274Z,27.85
2023-02-04T19:58:19.172Z,23.33
2023-02-04T20:00:52.024Z,37.25
2023-02-04T20:03:30.347Z,26.35
2023-02-04T20:06:10.787Z,25.08
2023-02-04T20:08:46.316Z,27.70
2023-02-04T20:11:31.340Z,28.27
2023-02-04T20:21:11.535Z,22.83
2023-02-04T20:23:40.345Z,28.95
2023-02-04T20:26:09.223Z,30.58
2023-02-04T20:28:47.874Z,22.48
2023-02-04T20:31:26.892Z,25.25
2023-02-04T20:33:56.866Z,27.98
2023-02-04T20:36:28.999Z,25.02
2023-02-04T20:39:35.980Z,22.60
2023-02-04T20:42:24.531Z,29.70
2023-02-04T20:44:51.682Z,27.58
2023-02-04T20:47:20.959Z,27.45
2023-02-04T20:49:56.729Z,24.75
2023-02-04T20:52:43.668Z,27.27
2023-02-04T20:55:33.967Z,29.85
2023-02-04T20:58:21.650Z,35.65
2023-02-04T21:00:53.930Z,26.42
2023-02-04T21:03:22.524Z,20.27
2023-02-04T21:05:51.288Z,24.30
2023-02-04T21:08:20.858Z,27.73
2023-02-04T21:10:50.609Z,34.08
2023-02-04T21:13:17.347Z,34.05
2023-02-04T21:15:44.126Z,35.20
2023-02-04T21:18:10.997Z,36.95
2023-02-04T21:20:37.823Z,42.05
2023-02-04T21:23:05.303Z,32.85
2023-02-04T21:25:32.666Z,33.75
2023-02-04T21:28:01.499Z,26.50
2023-02-04T21:30:30.387Z,26.17
2023-02-04T21:33:02.528Z,23.80
2023-02-04T21:35:29.833Z,21.55
2023-02-04T21:38:00.413Z,21.63
2023-02-04T21:40:28.809Z,28.98
2023-02-04T21:42:55.656Z,19.52
2023-02-04T21:45:24.092Z,23.20
2023-02-04T21:47:52.362Z,22.02
2023-02-04T21:50:21.521Z,18.40
2023-02-04T21:52:49.381Z,23.02
2023-02-04T21:55:21.542Z,23.85
2023-02-04T21:57:53.650Z,60.92
2023-02-04T22:00:25.257Z,23.08
2023-02-04T22:02:53.597Z,23.23
2023-02-04T22:05:22.591Z,21.98
2023-02-04T22:07:50.654Z,24.35
2023-02-04T22:10:23.453Z,32.78
2023-02-04T22:12:50.560Z,22.92
2023-02-04T22:15:18.176Z,27.05
2023-02-04T22:17:45.773Z,25.80
2023-02-04T22:20:15.830Z,18.90
2023-02-04T22:22:45.649Z,46.42
2023-02-04T22:25:14.863Z,26.88
2023-02-04T22:27:41.907Z,23.58
2023-02-04T22:30:12.458Z,28.27
2023-02-04T22:32:39.676Z,21.52
2023-02-04T22:35:08.140Z,24.30
2023-02-04T22:37:34.830Z,26.17
2023-02-04T22:40:01.755Z,27.55
2023-02-04T22:42:29.796Z,23.80
2023-02-04T22:44:58.064Z,20.95
2023-02-04T22:47:26.763Z,22.05
2023-02-04T22:49:53.520Z,25.13
2023-02-04T22:52:20.357Z,22.00
2023-02-04T22:54:50.902Z,27.63
2023-02-04T22:57:17.555Z,24.50
2023-02-04T22:59:44.246Z,29.35
2023-02-04T23:02:13.925Z,23.70
2023-02-04T23:04:43.965Z,27.23
2023-02-04T23:07:12.281Z,26.02
2023-02-04T23:09:39.474Z,24.50
2023-02-04T23:12:17.248Z,20.90
2023-02-04T23:14:46.476Z,32.15
2023-02-04T23:17:16.621Z,26.70
2023-02-04T23:19:47.128Z,21.15
2023-02-04T23:22:14.693Z,21.45
2023-02-04T23:24:42.582Z,34.33
2023-02-04T23:27:11.466Z,31.02
2023-02-04T23:29:39.745Z,29.15
2023-02-04T23:32:08.116Z,29.45
2023-02-04T23:34:35.555Z,23.35
2023-02-04T23:37:03.573Z,29.00
2023-02-04T23:39:31.037Z,25.00
2023-02-04T23:41:57.884Z,23.67
2023-02-04T23:44:27.946Z,23.45
2023-02-04T23:46:54.839Z,25.25
2023-02-04T23:49:21.785Z,17.77
2023-02-04T23:51:49.496Z,25.88
2023-02-04T23:54:16.188Z,25.85
2023-02-04T23:56:42.926Z,27.10
2023-02-04T23:59:10.862Z,24.02
